createdAt,value
2022-10-26T00:00:26.402Z,2.00
2022-10-26T00:02:56.915Z,2.30
2022-10-26T00:05:24.373Z,2.10
2022-10-26T00:07:51.671Z,2.30
2022-10-26T00:10:21.852Z,2.20
2022-10-26T00:12:52.212Z,2.88
2022-10-26T00:15:20.019Z,2.80
2022-10-26T00:17:48.202Z,2.35
2022-10-26T00:20:15.905Z,2.67
2022-10-26T00:22:43.184Z,2.47
2022-10-26T00:25:10.557Z,2.42
2022-10-26T00:27:37.859Z,2.65
2022-10-26T00:30:06.048Z,2.70
2022-10-26T00:32:33.704Z,2.53
2022-10-26T00:35:10.522Z,2.42
2022-10-26T00:37:48.726Z,2.85
2022-10-26T00:40:16.315Z,2.40
2022-10-26T00:42:43.714Z,2.22
2022-10-26T00:45:26.075Z,1.92
2022-10-26T00:48:07.510Z,2.55
2022-10-26T00:50:36.987Z,2.55
2022-10-26T00:53:04.880Z,1.98
2022-10-26T00:55:34.691Z,2.70
2022-10-26T00:58:02.531Z,2.20
2022-10-26T01:00:29.926Z,2.75
2022-10-26T01:02:58.059Z,2.28
2022-10-26T01:05:25.425Z,2.22
2022-10-26T01:07:52.730Z,2.20
2022-10-26T01:10:20.624Z,2.65
2022-10-26T01:12:47.931Z,2.13
2022-10-26T01:15:15.292Z,2.30
2022-10-26T01:17:55.644Z,2.40
2022-10-26T01:20:44.385Z,1.90
2022-10-26T01:23:26.359Z,2.65
2022-10-26T01:26:21.894Z,2.20
2022-10-26T01:28:52.021Z,2.13
2022-10-26T01:31:23.706Z,2.10
2022-10-26T01:34:25.080Z,2.28
2022-10-26T01:36:55.042Z,2.20
2022-10-26T01:39:35.794Z,2.15
2022-10-26T01:42:03.093Z,2.10
2022-10-26T01:44:41.939Z,2.08
2022-10-26T01:47:11.254Z,1.88
2022-10-26T01:49:41.585Z,2.35
2022-10-26T01:52:09.865Z,2.42
2022-10-26T01:57:10.960Z,1.92
2022-10-26T01:59:50.424Z,2.00
2022-10-26T02:02:39.330Z,2.00
2022-10-26T02:05:50.556Z,2.22
2022-10-26T02:08:28.582Z,2.20
2022-10-26T02:11:12.749Z,2.00
2022-10-26T02:13:53.384Z,2.00
2022-10-26T02:16:20.720Z,2.05
2022-10-26T02:18:53.973Z,2.10
2022-10-26T02:21:24.057Z,2.17
2022-10-26T02:23:51.914Z,2.15
2022-10-26T02:26:21.507Z,2.10
2022-10-26T02:28:50.839Z,2.10
2022-10-26T02:31:18.144Z,2.13
2022-10-26T02:36:25.387Z,2.08
2022-10-26T02:38:53.033Z,2.13
2022-10-26T02:41:20.652Z,2.65
2022-10-26T02:43:52.461Z,2.15
2022-10-26T02:46:20.858Z,2.20
2022-10-26T02:48:48.131Z,2.30
2022-10-26T02:51:28.885Z,2.10
2022-10-26T02:54:11.182Z,2.03
2022-10-26T02:56:52.214Z,2.17
2022-10-26T02:59:20.491Z,2.10
2022-10-26T03:01:47.847Z,1.90
2022-10-26T03:04:15.179Z,2.10
2022-10-26T03:06:42.524Z,2.15
2022-10-26T03:09:09.841Z,2.50
2022-10-26T03:11:37.139Z,2.40
2022-10-26T03:14:04.459Z,2.00
2022-10-26T03:16:31.739Z,1.90
2022-10-26T03:18:59.025Z,2.05
2022-10-26T03:21:26.342Z,1.85
2022-10-26T03:23:53.627Z,2.00
2022-10-26T03:26:20.893Z,2.22
2022-10-26T03:28:48.239Z,2.00
2022-10-26T03:31:15.542Z,1.90
2022-10-26T03:33:42.876Z,1.88
2022-10-26T03:36:10.435Z,2.33
2022-10-26T03:38:37.769Z,2.20
2022-10-26T03:41:05.139Z,1.90
2022-10-26T03:43:32.402Z,1.70
2022-10-26T03:45:59.702Z,1.90
2022-10-26T03:48:26.964Z,1.92
2022-10-26T03:50:58.199Z,2.38
2022-10-26T03:53:26.328Z,1.67
2022-10-26T03:55:53.634Z,2.50
2022-10-26T03:58:20.971Z,1.95
2022-10-26T04:00:48.468Z,2.00
2022-10-26T04:03:15.893Z,2.30
2022-10-26T04:05:43.171Z,2.42
2022-10-26T04:08:10.541Z,2.38
2022-10-26T04:10:37.866Z,2.15
2022-10-26T04:13:05.164Z,2.60
2022-10-26T04:15:32.463Z,2.00
2022-10-26T04:18:00.950Z,2.22
2022-10-26T04:20:28.936Z,1.98
2022-10-26T04:23:00.463Z,2.20
2022-10-26T04:25:30.167Z,1.85
2022-10-26T04:28:03.847Z,2.00
2022-10-26T04:30:31.678Z,1.98
2022-10-26T04:32:59.069Z,1.92
2022-10-26T04:35:26.700Z,1.70
2022-10-26T04:38:04.358Z,1.92
2022-10-26T04:40:32.565Z,1.80
2022-10-26T04:43:00.043Z,2.00
2022-10-26T04:45:31.165Z,2.00
2022-10-26T04:48:08.606Z,1.55
2022-10-26T04:50:36.136Z,1.95
2022-10-26T04:53:05.026Z,2.08
2022-10-26T04:55:32.395Z,2.20
2022-10-26T04:58:01.343Z,2.08
2022-10-26T05:00:31.003Z,2.30
2022-10-26T05:03:01.975Z,2.50
2022-10-26T05:05:30.506Z,2.28
2022-10-26T05:07:57.969Z,2.20
2022-10-26T05:10:25.439Z,2.28
2022-10-26T05:12:53.685Z,2.40
2022-10-26T05:15:21.177Z,2.20
2022-10-26T05:17:54.390Z,2.30
2022-10-26T05:20:21.655Z,2.55
2022-10-26T05:22:55.469Z,2.30
2022-10-26T05:25:22.846Z,2.20
2022-10-26T05:27:50.163Z,2.45
2022-10-26T05:30:17.642Z,2.28
2022-10-26T05:32:44.954Z,2.50
2022-10-26T05:35:12.350Z,2.80
2022-10-26T05:37:39.695Z,2.20
2022-10-26T05:40:07.676Z,1.95
2022-10-26T05:42:34.924Z,2.55
2022-10-26T05:45:02.268Z,4.97
2022-10-26T05:47:29.539Z,2.50
2022-10-26T05:49:56.840Z,2.70
2022-10-26T05:52:24.138Z,2.47
2022-10-26T05:54:51.458Z,2.65
2022-10-26T05:57:19.036Z,2.85
2022-10-26T05:59:46.647Z,2.55
2022-10-26T06:02:26.379Z,2.78
2022-10-26T06:04:53.820Z,4.20
2022-10-26T06:07:21.371Z,2.97
2022-10-26T06:09:49.264Z,3.40
2022-10-26T06:12:19.410Z,2.90
2022-10-26T06:14:47.661Z,3.10
2022-10-26T06:17:33.815Z,3.45
2022-10-26T06:20:23.908Z,3.25
2022-10-26T06:23:29.148Z,3.38
2022-10-26T06:26:16.282Z,3.53
2022-10-26T06:28:52.916Z,4.00
2022-10-26T06:31:20.240Z,3.50
2022-10-26T06:33:47.543Z,3.50
2022-10-26T06:36:24.743Z,4.25
2022-10-26T06:39:02.722Z,3.80
2022-10-26T06:41:34.057Z,4.00
2022-10-26T06:44:02.686Z,4.20
2022-10-26T06:46:41.506Z,3.97
2022-10-26T06:49:27.658Z,3.85
2022-10-26T06:52:10.340Z,3.67
2022-10-26T06:54:50.331Z,4.05
2022-10-26T06:57:22.046Z,4.15
2022-10-26T07:00:18.943Z,4.38
2022-10-26T07:02:46.512Z,5.80
2022-10-26T07:05:14.223Z,4.43
2022-10-26T07:07:48.047Z,4.60
2022-10-26T07:10:15.823Z,4.13
2022-10-26T07:12:43.146Z,3.50
2022-10-26T07:15:10.880Z,3.55
2022-10-26T07:17:45.733Z,3.40
2022-10-26T07:20:13.595Z,3.42
2022-10-26T07:22:42.721Z,3.63
2022-10-26T07:25:10.246Z,3.40
2022-10-26T07:27:37.527Z,3.30
2022-10-26T07:30:05.580Z,3.25
2022-10-26T07:32:33.093Z,3.17
2022-10-26T07:35:00.472Z,2.42
2022-10-26T07:37:28.128Z,3.00
2022-10-26T07:39:55.567Z,2.75
2022-10-26T07:42:22.883Z,2.42
2022-10-26T07:44:50.213Z,2.97
2022-10-26T07:47:17.559Z,2.67
2022-10-26T07:49:44.882Z,2.60
2022-10-26T07:52:12.195Z,2.40
2022-10-26T07:54:39.576Z,2.55
2022-10-26T07:57:06.919Z,2.20
2022-10-26T07:59:34.288Z,2.20
2022-10-26T08:02:01.665Z,2.08
2022-10-26T08:04:29.032Z,1.95
2022-10-26T08:06:56.401Z,2.20
2022-10-26T08:09:23.731Z,2.10
2022-10-26T08:11:51.036Z,2.38
2022-10-26T08:14:18.367Z,2.15
2022-10-26T08:16:45.969Z,2.03
2022-10-26T08:19:13.290Z,1.70
2022-10-26T08:21:40.791Z,2.03
2022-10-26T08:24:08.839Z,1.90
2022-10-26T08:26:36.393Z,1.80
2022-10-26T08:29:03.715Z,1.98
2022-10-26T08:31:31.001Z,1.73
2022-10-26T08:33:58.315Z,1.65
2022-10-26T08:36:26.219Z,1.73
2022-10-26T08:38:53.601Z,1.85
2022-10-26T08:41:29.808Z,1.67
2022-10-26T08:43:58.967Z,1.95
2022-10-26T08:46:29.455Z,1.60
2022-10-26T08:49:01.133Z,1.90
2022-10-26T08:51:35.388Z,2.25
2022-10-26T08:54:02.748Z,2.03
2022-10-26T08:56:47.172Z,2.08
2022-10-26T08:59:45.916Z,2.25
2022-10-26T09:02:13.711Z,2.38
2022-10-26T09:04:41.042Z,1.77
2022-10-26T09:07:40.687Z,2.10
2022-10-26T09:10:38.520Z,2.03
2022-10-26T09:13:23.850Z,1.60
2022-10-26T09:16:02.459Z,2.00
2022-10-26T09:18:35.999Z,2.00
2022-10-26T09:21:15.179Z,1.80
2022-10-26T09:24:00.983Z,1.70
2022-10-26T09:26:28.353Z,1.92
2022-10-26T09:28:55.863Z,1.73
2022-10-26T09:31:23.224Z,2.30
2022-10-26T09:33:50.532Z,2.25
2022-10-26T09:36:22.138Z,2.15
2022-10-26T09:39:09.030Z,18.13
2022-10-26T09:42:05.093Z,2.40
2022-10-26T09:44:38.654Z,1.30
2022-10-26T09:47:06.027Z,1.60
2022-10-26T09:49:44.214Z,1.20
2022-10-26T09:54:43.741Z,1.27
2022-10-26T09:57:13.076Z,1.50
2022-10-26T09:59:40.451Z,1.20
2022-10-26T10:02:38.132Z,1.50
2022-10-26T10:05:45.803Z,1.30
2022-10-26T10:08:22.056Z,1.60
2022-10-26T10:11:09.767Z,1.88
2022-10-26T10:13:44.504Z,1.27
2022-10-26T10:16:14.016Z,1.52
2022-10-26T10:18:41.877Z,1.50
2022-10-26T10:21:09.518Z,1.23
2022-10-26T10:23:47.440Z,1.40
2022-10-26T10:26:14.894Z,1.23
2022-10-26T10:28:42.709Z,1.50
2022-10-26T10:31:21.481Z,1.25
2022-10-26T10:33:49.494Z,1.52
2022-10-26T10:36:18.785Z,1.40
2022-10-26T10:38:47.445Z,1.52
2022-10-26T10:41:21.513Z,1.38
2022-10-26T10:43:50.353Z,1.80
2022-10-26T10:46:19.417Z,1.50
2022-10-26T10:48:48.580Z,1.67
2022-10-26T10:51:19.744Z,1.67
2022-10-26T10:53:57.008Z,1.60
2022-10-26T10:56:49.555Z,1.65
2022-10-26T10:59:47.333Z,1.80
2022-10-26T11:02:34.786Z,1.92
2022-10-26T11:05:24.776Z,1.83
2022-10-26T11:08:00.567Z,1.90
2022-10-26T11:10:30.623Z,2.10
2022-10-26T11:13:00.004Z,1.70
2022-10-26T11:15:29.941Z,1.40
2022-10-26T11:18:22.836Z,1.30
2022-10-26T11:20:54.925Z,1.50
2022-10-26T11:23:22.385Z,1.80
2022-10-26T11:26:12.672Z,1.73
2022-10-26T11:28:49.188Z,1.60
2022-10-26T11:31:20.451Z,1.73
2022-10-26T11:34:28.748Z,1.95
2022-10-26T11:37:30.570Z,1.85
2022-10-26T11:40:05.873Z,1.55
2022-10-26T11:42:51.350Z,1.80
2022-10-26T11:45:41.768Z,1.42
2022-10-26T11:48:22.144Z,1.92
2022-10-26T11:50:52.428Z,1.95
2022-10-26T11:53:22.243Z,1.88
2022-10-26T11:55:52.130Z,1.88
2022-10-26T11:58:19.482Z,1.98
2022-10-26T12:00:56.117Z,2.15
2022-10-26T12:03:28.846Z,1.95
2022-10-26T12:05:56.625Z,2.20
2022-10-26T12:08:27.195Z,1.60
2022-10-26T12:11:14.044Z,2.22
2022-10-26T12:13:50.849Z,2.42
2022-10-26T12:17:22.247Z,2.30
2022-10-26T12:20:04.807Z,1.90
2022-10-26T12:22:52.355Z,2.38
2022-10-26T12:25:21.251Z,2.30
2022-10-26T12:27:49.952Z,2.20
2022-10-26T12:30:17.531Z,2.70
2022-10-26T12:32:44.874Z,2.38
2022-10-26T12:35:33.612Z,2.40
2022-10-26T12:38:21.621Z,2.30
2022-10-26T12:40:49.411Z,3.28
2022-10-26T12:43:16.820Z,2.13
2022-10-26T12:45:45.623Z,2.92
2022-10-26T12:48:45.562Z,2.35
2022-10-26T12:51:22.115Z,2.35
2022-10-26T12:54:11.735Z,1.90
2022-10-26T12:56:58.051Z,2.38
2022-10-26T12:59:49.213Z,2.17
2022-10-26T13:02:34.873Z,2.10
2022-10-26T13:05:14.348Z,1.85
2022-10-26T13:07:41.701Z,1.90
2022-10-26T13:10:12.057Z,2.30
2022-10-26T13:12:50.337Z,2.40
2022-10-26T13:15:24.043Z,2.60
2022-10-26T13:18:18.057Z,2.40
2022-10-26T13:21:09.275Z,2.47
2022-10-26T13:23:38.586Z,2.13
2022-10-26T13:26:06.022Z,2.30
2022-10-26T13:28:37.629Z,1.70
2022-10-26T13:31:21.796Z,2.20
2022-10-26T13:33:49.115Z,2.40
2022-10-26T13:37:00.673Z,2.42
2022-10-26T13:39:36.651Z,2.75
2022-10-26T13:42:04.150Z,2.05
2022-10-26T13:44:44.970Z,2.13
2022-10-26T13:47:24.556Z,2.20
2022-10-26T13:49:53.166Z,2.40
2022-10-26T13:52:25.220Z,2.20
2022-10-26T13:55:25.775Z,2.10
2022-10-26T13:58:05.414Z,2.13
2022-10-26T14:00:32.758Z,1.92
2022-10-26T14:03:00.158Z,1.92
2022-10-26T14:05:27.436Z,2.13
2022-10-26T14:07:57.454Z,2.25
2022-10-26T14:10:34.807Z,2.00
2022-10-26T14:13:02.171Z,1.92
2022-10-26T14:15:30.905Z,1.88
2022-10-26T14:17:58.947Z,2.33
2022-10-26T14:20:26.348Z,2.55
2022-10-26T14:22:53.704Z,2.13
2022-10-26T14:25:31.263Z,2.42
2022-10-26T14:28:24.022Z,2.28
2022-10-26T14:30:51.725Z,1.98
2022-10-26T14:33:26.049Z,2.40
2022-10-26T14:35:53.852Z,2.10
2022-10-26T14:38:29.294Z,1.83
2022-10-26T14:40:57.367Z,1.88
2022-10-26T14:43:25.306Z,2.03
2022-10-26T14:45:53.367Z,2.70
2022-10-26T14:48:33.730Z,2.47
2022-10-26T14:51:16.099Z,2.00
2022-10-26T14:53:49.072Z,2.50
2022-10-26T14:56:25.029Z,2.33
2022-10-26T14:58:52.968Z,2.00
2022-10-26T15:01:23.485Z,2.10
2022-10-26T15:04:21.545Z,2.05
2022-10-26T15:06:48.972Z,2.25
2022-10-26T15:09:31.779Z,2.22
2022-10-26T15:11:59.474Z,1.73
2022-10-26T15:14:26.816Z,2.22
2022-10-26T15:16:55.383Z,2.42
2022-10-26T15:19:24.007Z,2.80
2022-10-26T15:21:51.927Z,3.00
2022-10-26T15:24:38.984Z,3.40
2022-10-26T15:27:14.960Z,3.20
2022-10-26T15:29:44.477Z,2.83
2022-10-26T15:32:19.513Z,2.72
2022-10-26T15:35:06.975Z,2.55
2022-10-26T15:37:34.336Z,3.03
2022-10-26T15:40:01.748Z,2.63
2022-10-26T15:42:29.225Z,2.28
2022-10-26T15:44:56.719Z,2.50
2022-10-26T15:47:24.619Z,2.95
2022-10-26T15:49:51.962Z,2.75
2022-10-26T15:52:19.283Z,2.72
2022-10-26T15:54:46.711Z,2.95
2022-10-26T15:57:16.656Z,2.58
2022-10-26T15:59:46.852Z,2.50
2022-10-26T16:02:15.155Z,3.17
2022-10-26T16:04:42.780Z,3.80
2022-10-26T16:07:14.062Z,3.33
2022-10-26T16:09:42.188Z,3.00
2022-10-26T16:12:13.123Z,3.38
2022-10-26T16:15:04.220Z,3.00
2022-10-26T16:17:27.877Z,3.25
2022-10-26T16:19:55.264Z,3.10
2022-10-26T16:22:22.573Z,2.80
2022-10-26T16:24:49.839Z,3.15
2022-10-26T16:27:17.255Z,3.58
2022-10-26T16:29:44.546Z,2.65
2022-10-26T16:32:11.924Z,2.72
2022-10-26T16:34:39.703Z,3.58
2022-10-26T16:37:07.095Z,3.00
2022-10-26T16:39:34.753Z,3.65
2022-10-26T16:42:02.406Z,3.53
2022-10-26T16:44:29.783Z,3.30
2022-10-26T16:46:57.323Z,3.03
2022-10-26T16:49:24.692Z,3.20
2022-10-26T16:51:52.590Z,3.78
2022-10-26T16:54:19.945Z,3.15
2022-10-26T16:56:47.353Z,3.20
2022-10-26T16:59:14.689Z,3.03
2022-10-26T17:01:42.093Z,3.28
2022-10-26T17:04:09.700Z,2.88
2022-10-26T17:06:37.048Z,3.40
2022-10-26T17:09:04.419Z,4.28
2022-10-26T17:11:31.853Z,6.18
2022-10-26T17:13:59.237Z,4.35
2022-10-26T17:16:26.574Z,4.05
2022-10-26T17:18:54.088Z,4.03
2022-10-26T17:21:34.453Z,4.78
2022-10-26T17:24:02.293Z,5.20
2022-10-26T17:26:29.936Z,5.63
2022-10-26T17:28:57.528Z,5.50
2022-10-26T17:31:25.099Z,5.07
2022-10-26T17:33:52.439Z,5.68
2022-10-26T17:36:21.437Z,5.10
2022-10-26T17:38:50.087Z,5.25
2022-10-26T17:41:21.913Z,4.45
2022-10-26T17:43:49.688Z,3.88
2022-10-26T17:46:22.903Z,4.95
2022-10-26T17:48:57.063Z,4.95
2022-10-26T17:51:25.136Z,3.72
2022-10-26T17:53:52.985Z,4.97
2022-10-26T17:56:28.014Z,4.90
2022-10-26T17:59:00.031Z,4.40
2022-10-26T18:01:27.751Z,4.50
2022-10-26T18:03:55.528Z,4.28
2022-10-26T18:06:23.128Z,4.18
2022-10-26T18:08:50.734Z,4.43
2022-10-26T18:11:26.477Z,4.13
2022-10-26T18:13:55.249Z,4.28
2022-10-26T18:16:23.010Z,4.80
2022-10-26T18:18:57.404Z,5.07
2022-10-26T18:23:52.780Z,4.45
2022-10-26T18:26:21.531Z,4.93
2022-10-26T18:28:49.221Z,4.60
2022-10-26T18:31:20.735Z,4.85
2022-10-26T18:33:48.068Z,5.22
2022-10-26T18:36:17.204Z,5.50
2022-10-26T18:38:45.919Z,5.10
2022-10-26T18:41:14.101Z,4.78
2022-10-26T18:43:42.254Z,5.13
2022-10-26T18:46:20.805Z,5.50
2022-10-26T18:48:49.333Z,6.25
2022-10-26T18:51:18.243Z,6.50
2022-10-26T18:53:46.044Z,7.60
2022-10-26T18:56:20.096Z,7.25
2022-10-26T18:58:48.935Z,7.57
2022-10-26T19:01:17.229Z,7.57
2022-10-26T19:03:44.911Z,9.10
2022-10-26T19:06:13.407Z,8.23
2022-10-26T19:08:40.823Z,9.18
2022-10-26T19:11:10.040Z,8.70
2022-10-26T19:13:37.705Z,8.93
2022-10-26T19:16:17.230Z,9.55
2022-10-26T19:18:57.971Z,9.38
2022-10-26T19:21:25.524Z,8.68
2022-10-26T19:23:53.884Z,9.20
2022-10-26T19:26:22.965Z,9.07
2022-10-26T19:28:57.506Z,8.55
2022-10-26T19:31:27.275Z,9.93
2022-10-26T19:33:57.757Z,9.43
2022-10-26T19:36:25.191Z,9.63
2022-10-26T19:38:52.931Z,8.60
2022-10-26T19:41:22.435Z,9.20
2022-10-26T19:43:50.033Z,9.70
2022-10-26T19:46:19.075Z,9.70
2022-10-26T19:48:54.022Z,9.07
2022-10-26T19:51:21.405Z,10.18
2022-10-26T19:53:48.782Z,9.32
2022-10-26T19:56:16.165Z,9.20
2022-10-26T19:58:44.099Z,9.32
2022-10-26T20:01:12.258Z,10.15
2022-10-26T20:03:39.671Z,9.80
2022-10-26T20:06:12.828Z,10.27
2022-10-26T20:08:41.298Z,10.98
2022-10-26T20:11:11.554Z,10.88
2022-10-26T20:13:42.094Z,10.97
2022-10-26T20:16:09.491Z,12.88
2022-10-26T20:18:36.888Z,13.52
2022-10-26T20:21:08.719Z,12.80
2022-10-26T20:23:36.146Z,12.93
2022-10-26T20:26:03.551Z,12.18
2022-10-26T20:28:30.946Z,14.50
2022-10-26T20:30:59.459Z,12.63
2022-10-26T20:33:27.448Z,13.07
2022-10-26T20:35:58.977Z,11.90
2022-10-26T20:38:26.800Z,10.95
2022-10-26T20:40:58.357Z,15.05
2022-10-26T20:43:26.538Z,15.00
2022-10-26T20:45:54.292Z,12.18
2022-10-26T20:48:22.071Z,11.02
2022-10-26T20:54:03.017Z,8.52
2022-10-26T20:56:30.413Z,8.10
2022-10-26T20:58:58.384Z,7.68
2022-10-26T21:01:33.485Z,7.22
2022-10-26T21:04:02.079Z,7.30
2022-10-26T21:06:29.551Z,6.63
2022-10-26T21:08:57.157Z,6.72
2022-10-26T21:11:25.273Z,8.88
2022-10-26T21:13:53.756Z,8.20
2022-10-26T21:18:49.711Z,6.93
2022-10-26T21:21:17.014Z,7.20
2022-10-26T21:23:44.346Z,6.72
2022-10-26T21:26:11.651Z,7.35
2022-10-26T21:28:45.805Z,6.80
2022-10-26T21:31:14.918Z,7.40
2022-10-26T21:33:42.367Z,8.30
2022-10-26T21:36:12.278Z,9.68
2022-10-26T21:38:40.514Z,6.60
2022-10-26T21:41:12.671Z,6.15
2022-10-26T21:43:41.124Z,5.90
2022-10-26T21:46:08.765Z,5.60
2022-10-26T21:48:36.210Z,5.80
2022-10-26T21:51:04.764Z,5.60
2022-10-26T21:53:32.201Z,6.05
2022-10-26T21:56:03.864Z,6.60
2022-10-26T21:58:31.206Z,6.22
2022-10-26T22:01:11.482Z,5.88
2022-10-26T22:03:39.067Z,5.43
2022-10-26T22:06:07.178Z,5.63
2022-10-26T22:08:34.858Z,5.10
2022-10-26T22:11:22.186Z,5.03
2022-10-26T22:13:50.089Z,4.95
2022-10-26T22:16:20.909Z,6.25
2022-10-26T22:18:48.532Z,5.43
2022-10-26T22:21:16.541Z,5.03
2022-10-26T22:23:43.929Z,5.13
2022-10-26T22:26:21.820Z,5.35
2022-10-26T22:28:51.677Z,4.97
2022-10-26T22:31:20.740Z,5.60
2022-10-26T22:33:55.943Z,5.20
2022-10-26T22:36:23.474Z,5.13
2022-10-26T22:38:51.023Z,6.03
2022-10-26T22:41:18.865Z,5.70
2022-10-26T22:43:46.376Z,5.97
2022-10-26T22:46:18.464Z,5.80
2022-10-26T22:48:45.918Z,5.72
2022-10-26T22:51:15.567Z,6.22
2022-10-26T22:53:43.159Z,5.80
2022-10-26T22:56:11.152Z,6.38
2022-10-26T22:58:39.020Z,5.50
2022-10-26T23:01:14.532Z,5.40
2022-10-26T23:03:42.129Z,5.78
2022-10-26T23:06:11.230Z,5.35
2022-10-26T23:08:38.642Z,5.00
2022-10-26T23:11:07.462Z,5.30
2022-10-26T23:13:34.746Z,5.47
2022-10-26T23:16:06.359Z,5.43
2022-10-26T23:18:34.301Z,5.20
2022-10-26T23:21:01.815Z,5.30
2022-10-26T23:23:29.150Z,4.43
2022-10-26T23:26:07.070Z,5.47
2022-10-26T23:28:35.155Z,4.88
2022-10-26T23:31:02.631Z,5.38
2022-10-26T23:33:29.980Z,5.18
2022-10-26T23:35:57.526Z,4.95
2022-10-26T23:38:25.408Z,5.30
2022-10-26T23:40:54.224Z,5.18
2022-10-26T23:43:21.885Z,5.38
2022-10-26T23:45:49.319Z,7.47
2022-10-26T23:48:16.732Z,7.40
2022-10-26T23:50:44.615Z,6.03
2022-10-26T23:53:12.502Z,5.63
2022-10-26T23:55:39.871Z,5.72
2022-10-26T23:58:07.208Z,5.97
